sensor_id;sensor_type;location;lat;lon;timestamp;pressure;altitude;pressure_sealevel;temperature;humidity
33404;BME280;19751;40.274;18.268;2023-04-19T00:00:18;100899.63;;;12.90;100.00
33404;BME280;19751;40.274;18.268;2023-04-19T00:02:45;100902.50;;;12.82;100.00
33404;BME280;19751;40.274;18.268;2023-04-19T00:05:13;100902.25;;;12.77;100.00
33404;BME280;19751;40.274;18.268;2023-04-19T00:07:39;100899.97;;;12.74;100.00
33404;BME280;19751;40.274;18.268;2023-04-19T00:10:05;100896.00;;;12.70;100.00
33404;BME280;19751;40.274;18.268;2023-04-19T00:12:31;100898.69;;;12.70;100.00
33404;BME280;19751;40.274;18.268;2023-04-19T00:14:56;100897.66;;;12.71;100.00
33404;BME280;19751;40.274;18.268;2023-04-19T00:17:22;100893.47;;;12.68;100.00
33404;BME280;19751;40.274;18.268;2023-04-19T00:19:47;100902.84;;;12.66;100.00
33404;BME280;19751;40.274;18.268;2023-04-19T00:22:13;100905.72;;;12.64;100.00
33404;BME280;19751;40.274;18.268;2023-04-19T00:24:38;100912.75;;;12.59;100.00
33404;BME280;19751;40.274;18.268;2023-04-19T00:27:04;100899.63;;;12.56;100.00
33404;BME280;19751;40.274;18.268;2023-04-19T00:29:29;100904.41;;;12.54;100.00
33404;BME280;19751;40.274;18.268;2023-04-19T00:31:54;100901.47;;;12.49;100.00
33404;BME280;19751;40.274;18.268;2023-04-19T00:34:20;100899.56;;;12.42;100.00
33404;BME280;19751;40.274;18.268;2023-04-19T00:36:45;100903.50;;;12.40;100.00
33404;BME280;19751;40.274;18.268;2023-04-19T00:39:11;100903.06;;;12.36;100.00
33404;BME280;19751;40.274;18.268;2023-04-19T00:41:37;100898.50;;;12.43;100.00
33404;BME280;19751;40.274;18.268;2023-04-19T00:44:02;100901.66;;;12.47;100.00
33404;BME280;19751;40.274;18.268;2023-04-19T00:46:28;100898.38;;;12.52;100.00
33404;BME280;19751;40.274;18.268;2023-04-19T00:48:54;100892.13;;;12.51;100.00
33404;BME280;19751;40.274;18.268;2023-04-19T00:51:19;100893.13;;;12.43;100.00
33404;BME280;19751;40.274;18.268;2023-04-19T00:53:45;100897.06;;;12.41;100.00
33404;BME280;19751;40.274;18.268;2023-04-19T00:56:12;100890.63;;;12.42;100.00
33404;BME280;19751;40.274;18.268;2023-04-19T00:58:38;100890.84;;;12.40;100.00
33404;BME280;19751;40.274;18.268;2023-04-19T01:01:03;100886.03;;;12.36;100.00
33404;BME280;19751;40.274;18.268;2023-04-19T01:03:30;100891.84;;;12.39;100.00
33404;BME280;19751;40.274;18.268;2023-04-19T01:05:56;100883.34;;;12.42;100.00
33404;BME280;19751;40.274;18.268;2023-04-19T01:08:22;100895.44;;;12.47;100.00
33404;BME280;19751;40.274;18.268;2023-04-19T01:10:48;100892.72;;;12.47;100.00
33404;BME280;19751;40.274;18.268;2023-04-19T01:13:13;100897.91;;;12.41;100.00
33404;BME280;19751;40.274;18.268;2023-04-19T01:15:39;100890.63;;;12.42;100.00
33404;BME280;19751;40.274;18.268;2023-04-19T01:18:04;100893.91;;;12.37;100.00
33404;BME280;19751;40.274;18.268;2023-04-19T01:20:30;100896.78;;;12.29;100.00
33404;BME280;19751;40.274;18.268;2023-04-19T01:22:56;100892.78;;;12.25;100.00
33404;BME280;19751;40.274;18.268;2023-04-19T01:25:21;100901.66;;;12.19;100.00
33404;BME280;19751;40.274;18.268;2023-04-19T01:27:47;100898.72;;;12.14;100.00
33404;BME280;19751;40.274;18.268;2023-04-19T01:30:12;100894.59;;;12.18;100.00
33404;BME280;19751;40.274;18.268;2023-04-19T01:32:38;100893.38;;;12.21;100.00
33404;BME280;19751;40.274;18.268;2023-04-19T01:35:04;100897.69;;;12.15;100.00
33404;BME280;19751;40.274;18.268;2023-04-19T01:37:30;100896.00;;;12.07;100.00
33404;BME280;19751;40.274;18.268;2023-04-19T01:39:58;100893.66;;;12.04;100.00
33404;BME280;19751;40.274;18.268;2023-04-19T01:42:24;100898.03;;;12.05;100.00
33404;BME280;19751;40.274;18.268;2023-04-19T01:44:50;100891.56;;;12.00;100.00
33404;BME280;19751;40.274;18.268;2023-04-19T01:47:16;100892.31;;;11.93;100.00
33404;BME280;19751;40.274;18.268;2023-04-19T01:49:41;100894.31;;;11.85;100.00
33404;BME280;19751;40.274;18.268;2023-04-19T01:52:07;100904.28;;;11.84;100.00
33404;BME280;19751;40.274;18.268;2023-04-19T01:54:32;100903.81;;;11.81;100.00
33404;BME280;19751;40.274;18.268;2023-04-19T01:56:58;100908.16;;;11.82;100.00
33404;BME280;19751;40.274;18.268;2023-04-19T01:59:23;100902.41;;;11.85;100.00
33404;BME280;19751;40.274;18.268;2023-04-19T02:01:48;100903.72;;;11.89;100.00
33404;BME280;19751;40.274;18.268;2023-04-19T02:04:14;100908.16;;;11.82;100.00
33404;BME280;19751;40.274;18.268;2023-04-19T02:06:39;100904.00;;;11.79;100.00
33404;BME280;19751;40.274;18.268;2023-04-19T02:09:05;100902.34;;;11.78;100.00
33404;BME280;19751;40.274;18.268;2023-04-19T02:11:30;100897.53;;;11.74;100.00
33404;BME280;19751;40.274;18.268;2023-04-19T02:13:56;100891.94;;;11.75;100.00
33404;BME280;19751;40.274;18.268;2023-04-19T02:16:21;100896.94;;;11.78;100.00
33404;BME280;19751;40.274;18.268;2023-04-19T02:18:47;100897.22;;;11.83;100.00
33404;BME280;19751;40.274;18.268;2023-04-19T02:21:13;100893.75;;;11.89;100.00
33404;BME280;19751;40.274;18.268;2023-04-19T02:23:39;100890.66;;;11.92;100.00
33404;BME280;19751;40.274;18.268;2023-04-19T02:26:04;100893.16;;;11.94;100.00
33404;BME280;19751;40.274;18.268;2023-04-19T02:28:30;100892.97;;;11.96;100.00
33404;BME280;19751;40.274;18.268;2023-04-19T02:30:57;100886.94;;;11.93;100.00
33404;BME280;19751;40.274;18.268;2023-04-19T02:33:22;100886.09;;;11.93;100.00
33404;BME280;19751;40.274;18.268;2023-04-19T02:35:48;100891.44;;;11.86;100.00
33404;BME280;19751;40.274;18.268;2023-04-19T02:38:14;100882.50;;;11.86;100.00
33404;BME280;19751;40.274;18.268;2023-04-19T02:40:39;100881.50;;;11.87;100.00
33404;BME280;19751;40.274;18.268;2023-04-19T02:43:05;100880.25;;;11.89;100.00
33404;BME280;19751;40.274;18.268;2023-04-19T02:45:30;100881.97;;;11.97;100.00
33404;BME280;19751;40.274;18.268;2023-04-19T02:47:56;100876.63;;;12.04;100.00
33404;BME280;19751;40.274;18.268;2023-04-19T02:50:22;100880.63;;;12.08;100.00
33404;BME280;19751;40.274;18.268;2023-04-19T02:52:48;100882.06;;;12.10;100.00
33404;BME280;19751;40.274;18.268;2023-04-19T02:55:13;100884.59;;;12.12;100.00
33404;BME280;19751;40.274;18.268;2023-04-19T02:57:39;100878.09;;;12.06;100.00
33404;BME280;19751;40.274;18.268;2023-04-19T03:00:05;100880.38;;;12.03;100.00
33404;BME280;19751;40.274;18.268;2023-04-19T03:02:32;100872.00;;;11.98;100.00
33404;BME280;19751;40.274;18.268;2023-04-19T03:04:58;100879.47;;;11.96;100.00
33404;BME280;19751;40.274;18.268;2023-04-19T03:07:24;100874.13;;;12.02;100.00
33404;BME280;19751;40.274;18.268;2023-04-19T03:09:49;100868.72;;;12.02;100.00
33404;BME280;19751;40.274;18.268;2023-04-19T03:12:15;100874.31;;;12.01;100.00
33404;BME280;19751;40.274;18.268;2023-04-19T03:14:41;100874.53;;;11.99;100.00
33404;BME280;19751;40.274;18.268;2023-04-19T03:17:06;100873.69;;;11.99;100.00
33404;BME280;19751;40.274;18.268;2023-04-19T03:19:31;100876.41;;;11.99;100.00
33404;BME280;19751;40.274;18.268;2023-04-19T03:21:57;100869.75;;;12.01;100.00
33404;BME280;19751;40.274;18.268;2023-04-19T03:24:26;100874.97;;;12.03;100.00
33404;BME280;19751;40.274;18.268;2023-04-19T03:26:53;100876.81;;;12.02;100.00
33404;BME280;19751;40.274;18.268;2023-04-19T03:29:19;100880.94;;;11.98;100.00
33404;BME280;19751;40.274;18.268;2023-04-19T03:31:45;100879.47;;;11.96;100.00
33404;BME280;19751;40.274;18.268;2023-04-19T03:34:10;100880.53;;;11.94;100.00
33404;BME280;19751;40.274;18.268;2023-04-19T03:36:36;100883.41;;;11.93;100.00
33404;BME280;19751;40.274;18.268;2023-04-19T03:39:02;100882.78;;;11.91;100.00
33404;BME280;19751;40.274;18.268;2023-04-19T03:41:28;100877.16;;;11.92;100.00
33404;BME280;19751;40.274;18.268;2023-04-19T03:43:53;100870.13;;;11.98;100.00
33404;BME280;19751;40.274;18.268;2023-04-19T03:46:19;100882.81;;;11.98;100.00
33404;BME280;19751;40.274;18.268;2023-04-19T03:48:44;100894.41;;;11.91;100.00
33404;BME280;19751;40.274;18.268;2023-04-19T03:51:10;100897.38;;;11.82;100.00
33404;BME280;19751;40.274;18.268;2023-04-19T03:53:37;100902.66;;;11.68;100.00
33404;BME280;19751;40.274;18.268;2023-04-19T03:56:02;100911.78;;;11.67;100.00
33404;BME280;19751;40.274;18.268;2023-04-19T03:58:28;100904.91;;;11.65;100.00
33404;BME280;19751;40.274;18.268;2023-04-19T04:00:53;100914.41;;;11.61;100.00
33404;BME280;19751;40.274;18.268;2023-04-19T04:03:19;100908.13;;;11.54;100.00
33404;BME280;19751;40.274;18.268;2023-04-19T04:05:45;100906.84;;;11.50;100.00
33404;BME280;19751;40.274;18.268;2023-04-19T04:08:11;100910.16;;;11.52;100.00
33404;BME280;19751;40.274;18.268;2023-04-19T04:10:38;100903.72;;;11.53;100.00
33404;BME280;19751;40.274;18.268;2023-04-19T04:13:03;100917.22;;;11.53;100.00
33404;BME280;19751;40.274;18.268;2023-04-19T04:15:28;100914.53;;;11.53;100.00
33404;BME280;19751;40.274;18.268;2023-04-19T04:17:54;100922.63;;;11.53;100.00
33404;BME280;19751;40.274;18.268;2023-04-19T04:20:19;100920.94;;;11.52;100.00
33404;BME280;19751;40.274;18.268;2023-04-19T04:22:45;100916.78;;;11.49;100.00
33404;BME280;19751;40.274;18.268;2023-04-19T04:25:12;100915.81;;;11.57;100.00
33404;BME280;19751;40.274;18.268;2023-04-19T04:27:40;100917.38;;;11.66;100.00
33404;BME280;19751;40.274;18.268;2023-04-19T04:30:07;100916.84;;;11.77;100.00
33404;BME280;19751;40.274;18.268;2023-04-19T04:32:33;100907.44;;;11.88;100.00
33404;BME280;19751;40.274;18.268;2023-04-19T04:35:03;100915.19;;;11.98;100.00
33404;BME280;19751;40.274;18.268;2023-04-19T04:37:33;100913.16;;;12.00;100.00
33404;BME280;19751;40.274;18.268;2023-04-19T04:40:00;100914.56;;;11.96;100.00
33404;BME280;19751;40.274;18.268;2023-04-19T04:42:26;100912.06;;;11.94;100.00
33404;BME280;19751;40.274;18.268;2023-04-19T04:44:52;100910.22;;;11.94;100.00
33404;BME280;19751;40.274;18.268;2023-04-19T04:47:17;100921.44;;;11.98;100.00
33404;BME280;19751;40.274;18.268;2023-04-19T04:49:44;100910.25;;;12.01;100.00
33404;BME280;19751;40.274;18.268;2023-04-19T04:52:09;100906.13;;;12.05;100.00
33404;BME280;19751;40.274;18.268;2023-04-19T04:54:35;100914.06;;;12.07;100.00
33404;BME280;19751;40.274;18.268;2023-04-19T04:57:00;100922.78;;;12.09;100.00
33404;BME280;19751;40.274;18.268;2023-04-19T04:59:26;100917.59;;;12.07;100.00
33404;BME280;19751;40.274;18.268;2023-04-19T05:01:52;100917.97;;;12.04;100.00
33404;BME280;19751;40.274;18.268;2023-04-19T05:04:18;100920.22;;;12.01;100.00
33404;BME280;19751;40.274;18.268;2023-04-19T05:06:43;100916.94;;;12.05;100.00
33404;BME280;19751;40.274;18.268;2023-04-19T05:09:09;100922.78;;;12.09;100.00
33404;BME280;19751;40.274;18.268;2023-04-19T05:11:35;100924.69;;;12.15;100.00
33404;BME280;19751;40.274;18.268;2023-04-19T05:14:02;100930.09;;;12.15;100.00
33404;BME280;19751;40.274;18.268;2023-04-19T05:16:28;100928.03;;;12.17;100.00
33404;BME280;19751;40.274;18.268;2023-04-19T05:18:53;100936.34;;;12.15;100.00
33404;BME280;19751;40.274;18.268;2023-04-19T05:21:19;100941.53;;;12.17;100.00
33404;BME280;19751;40.274;18.268;2023-04-19T05:23:44;100940.19;;;12.06;100.00
33404;BME280;19751;40.274;18.268;2023-04-19T05:26:10;100937.06;;;12.03;100.00
33404;BME280;19751;40.274;18.268;2023-04-19T05:28:37;100950.00;;;12.07;100.00
33404;BME280;19751;40.274;18.268;2023-04-19T05:31:03;100940.88;;;12.15;100.00
33404;BME280;19751;40.274;18.268;2023-04-19T05:33:28;100945.53;;;12.21;100.00
33404;BME280;19751;40.274;18.268;2023-04-19T05:35:54;100940.56;;;12.25;100.00
33404;BME280;19751;40.274;18.268;2023-04-19T05:38:19;100947.84;;;12.24;100.00
33404;BME280;19751;40.274;18.268;2023-04-19T05:40:45;100949.31;;;12.27;100.00
33404;BME280;19751;40.274;18.268;2023-04-19T05:43:11;100940.81;;;12.30;100.00
33404;BME280;19751;40.274;18.268;2023-04-19T05:45:36;100948.72;;;12.31;100.00
33404;BME280;19751;40.274;18.268;2023-04-19T05:48:02;100942.53;;;12.37;100.00
33404;BME280;19751;40.274;18.268;2023-04-19T05:50:27;100944.72;;;12.49;100.00
33404;BME280;19751;40.274;18.268;2023-04-19T05:52:53;100938.50;;;12.55;100.00
33404;BME280;19751;40.274;18.268;2023-04-19T05:55:18;100944.28;;;12.52;100.00
33404;BME280;19751;40.274;18.268;2023-04-19T05:57:44;100949.53;;;12.53;100.00
33404;BME280;19751;40.274;18.268;2023-04-19T06:00:09;100943.31;;;12.59;100.00
33404;BME280;19751;40.274;18.268;2023-04-19T06:02:35;100947.13;;;12.65;100.00
33404;BME280;19751;40.274;18.268;2023-04-19T06:05:01;100946.09;;;12.73;100.00
33404;BME280;19751;40.274;18.268;2023-04-19T06:07:31;100942.00;;;12.83;100.00
33404;BME280;19751;40.274;18.268;2023-04-19T06:09:57;100942.25;;;12.88;100.00
33404;BME280;19751;40.274;18.268;2023-04-19T06:12:22;100946.59;;;12.89;100.00
33404;BME280;19751;40.274;18.268;2023-04-19T06:14:48;100944.78;;;12.97;100.00
33404;BME280;19751;40.274;18.268;2023-04-19T06:17:13;100947.75;;;13.08;100.00
33404;BME280;19751;40.274;18.268;2023-04-19T06:19:41;100943.66;;;13.19;100.00
33404;BME280;19751;40.274;18.268;2023-04-19T06:22:07;100943.09;;;13.30;100.00
33404;BME280;19751;40.274;18.268;2023-04-19T06:24:32;100950.19;;;13.38;100.00
33404;BME280;19751;40.274;18.268;2023-04-19T06:26:58;100949.41;;;13.44;100.00
33404;BME280;19751;40.274;18.268;2023-04-19T06:29:23;100944.59;;;13.46;100.00
33404;BME280;19751;40.274;18.268;2023-04-19T06:31:49;100951.50;;;13.55;100.00
33404;BME280;19751;40.274;18.268;2023-04-19T06:34:15;100956.72;;;13.63;100.00
33404;BME280;19751;40.274;18.268;2023-04-19T06:36:41;100962.16;;;13.70;100.00
33404;BME280;19751;40.274;18.268;2023-04-19T06:39:06;100956.34;;;13.73;100.00
33404;BME280;19751;40.274;18.268;2023-04-19T06:41:32;100952.59;;;13.74;100.00
33404;BME280;19751;40.274;18.268;2023-04-19T06:43:57;100960.72;;;13.74;100.00
33404;BME280;19751;40.274;18.268;2023-04-19T06:46:23;100954.91;;;13.77;100.00
33404;BME280;19751;40.274;18.268;2023-04-19T06:48:48;100963.44;;;13.74;100.00
33404;BME280;19751;40.274;18.268;2023-04-19T06:51:15;100959.88;;;13.67;100.00
33404;BME280;19751;40.274;18.268;2023-04-19T06:53:40;100964.84;;;13.63;100.00
33404;BME280;19751;40.274;18.268;2023-04-19T06:56:08;100962.97;;;13.64;100.00
33404;BME280;19751;40.274;18.268;2023-04-19T06:58:34;100963.22;;;13.69;100.00
33404;BME280;19751;40.274;18.268;2023-04-19T07:00:59;100966.94;;;13.68;100.00
33404;BME280;19751;40.274;18.268;2023-04-19T07:03:25;100971.75;;;13.66;100.00
33404;BME280;19751;40.274;18.268;2023-04-19T07:05:51;100966.09;;;13.67;100.00
33404;BME280;19751;40.274;18.268;2023-04-19T07:08:17;100966.53;;;13.71;100.00
33404;BME280;19751;40.274;18.268;2023-04-19T07:10:42;100964.28;;;13.81;100.00
33404;BME280;19751;40.274;18.268;2023-04-19T07:13:10;100963.03;;;13.90;100.00
33404;BME280;19751;40.274;18.268;2023-04-19T07:15:36;100970.34;;;13.90;100.00
33404;BME280;19751;40.274;18.268;2023-04-19T07:18:02;100965.34;;;13.93;100.00
33404;BME280;19751;40.274;18.268;2023-04-19T07:20:27;100965.97;;;13.96;100.00
33404;BME280;19751;40.274;18.268;2023-04-19T07:22:58;100971.38;;;13.96;100.00
33404;BME280;19751;40.274;18.268;2023-04-19T07:25:24;100975.94;;;13.88;100.00
33404;BME280;19751;40.274;18.268;2023-04-19T07:27:54;100969.06;;;13.79;100.00
33404;BME280;19751;40.274;18.268;2023-04-19T07:30:21;100977.19;;;13.79;100.00
33404;BME280;19751;40.274;18.268;2023-04-19T07:32:46;100969.25;;;13.84;100.00
33404;BME280;19751;40.274;18.268;2023-04-19T07:35:12;100972.84;;;13.98;100.00
33404;BME280;19751;40.274;18.268;2023-04-19T07:37:37;100967.25;;;14.06;100.00
33404;BME280;19751;40.274;18.268;2023-04-19T07:40:03;100962.22;;;14.16;100.00
33404;BME280;19751;40.274;18.268;2023-04-19T07:42:29;100964.53;;;14.20;100.00
33404;BME280;19751;40.274;18.268;2023-04-19T07:44:55;100967.66;;;14.23;100.00
33404;BME280;19751;40.274;18.268;2023-04-19T07:47:21;100965.78;;;14.30;100.00
33404;BME280;19751;40.274;18.268;2023-04-19T07:49:51;100973.28;;;14.41;100.00
33404;BME280;19751;40.274;18.268;2023-04-19T07:52:16;100962.03;;;14.51;100.00
33404;BME280;19751;40.274;18.268;2023-04-19T07:54:42;100954.56;;;14.60;100.00
33404;BME280;19751;40.274;18.268;2023-04-19T07:57:08;100958.28;;;14.65;100.00
33404;BME280;19751;40.274;18.268;2023-04-19T07:59:33;100963.06;;;14.70;100.00
33404;BME280;19751;40.274;18.268;2023-04-19T08:01:59;100971.19;;;14.70;100.00
33404;BME280;19751;40.274;18.268;2023-04-19T08:04:25;100969.53;;;14.69;100.00
33404;BME280;19751;40.274;18.268;2023-04-19T08:06:50;100965.56;;;14.72;100.00
33404;BME280;19751;40.274;18.268;2023-04-19T08:09:17;100967.03;;;14.74;100.00
33404;BME280;19751;40.274;18.268;2023-04-19T08:11:42;100961.38;;;14.82;100.00
33404;BME280;19751;40.274;18.268;2023-04-19T08:14:08;100968.66;;;14.88;100.00
33404;BME280;19751;40.274;18.268;2023-04-19T08:16:34;100969.91;;;14.92;100.00
33404;BME280;19751;40.274;18.268;2023-04-19T08:18:59;100964.47;;;14.92;100.00
33404;BME280;19751;40.274;18.268;2023-04-19T08:21:25;100966.16;;;14.94;100.00
33404;BME280;19751;40.274;18.268;2023-04-19T08:23:51;100971.78;;;14.99;100.00
33404;BME280;19751;40.274;18.268;2023-04-19T08:26:16;100971.97;;;15.04;100.00
33404;BME280;19751;40.274;18.268;2023-04-19T08:28:42;100960.88;;;15.12;100.00
33404;BME280;19751;40.274;18.268;2023-04-19T08:31:07;100957.28;;;15.25;100.00
33404;BME280;19751;40.274;18.268;2023-04-19T08:33:45;100950.19;;;15.30;100.00
33404;BME280;19751;40.274;18.268;2023-04-19T08:36:11;100957.44;;;15.36;100.00
33404;BME280;19751;40.274;18.268;2023-04-19T08:38:36;100965.75;;;15.41;100.00
33404;BME280;19751;40.274;18.268;2023-04-19T08:41:03;100963.69;;;15.44;100.00
33404;BME280;19751;40.274;18.268;2023-04-19T08:43:29;100962.22;;;15.48;100.00
33404;BME280;19751;40.274;18.268;2023-04-19T08:45:58;100970.13;;;15.49;100.00
33404;BME280;19751;40.274;18.268;2023-04-19T08:48:23;100959.25;;;15.49;100.00
33404;BME280;19751;40.274;18.268;2023-04-19T08:50:50;100968.03;;;15.51;100.00
33404;BME280;19751;40.274;18.268;2023-04-19T08:53:16;100967.19;;;15.51;100.00
33404;BME280;19751;40.274;18.268;2023-04-19T08:55:42;100961.75;;;15.51;100.00
33404;BME280;19751;40.274;18.268;2023-04-19T08:58:08;100965.31;;;15.51;100.00
33404;BME280;19751;40.274;18.268;2023-04-19T09:00:37;100963.44;;;15.52;100.00
33404;BME280;19751;40.274;18.268;2023-04-19T09:03:06;100958.78;;;15.59;100.00
33404;BME280;19751;40.274;18.268;2023-04-19T09:05:31;100961.72;;;15.64;100.00
33404;BME280;19751;40.274;18.268;2023-04-19T09:08:25;100958.38;;;15.69;100.00
33404;BME280;19751;40.274;18.268;2023-04-19T09:10:53;100959.78;;;15.71;100.00
33404;BME280;19751;40.274;18.268;2023-04-19T09:13:19;100966.47;;;15.75;100.00
33404;BME280;19751;40.274;18.268;2023-04-19T09:15:44;100955.00;;;15.73;100.00
33404;BME280;19751;40.274;18.268;2023-04-19T09:18:11;100955.00;;;15.73;100.00
33404;BME280;19751;40.274;18.268;2023-04-19T09:20:41;100954.09;;;15.79;100.00
33404;BME280;19751;40.274;18.268;2023-04-19T09:23:12;100962.88;;;15.81;100.00
33404;BME280;19751;40.274;18.268;2023-04-19T09:25:38;100963.28;;;15.85;100.00
33404;BME280;19751;40.274;18.268;2023-04-19T09:28:09;100954.47;;;15.89;100.00
33404;BME280;19751;40.274;18.268;2023-04-19T09:30:35;100961.13;;;15.94;100.00
33404;BME280;19751;40.274;18.268;2023-04-19T09:33:00;100952.75;;;15.95;100.00
33404;BME280;19751;40.274;18.268;2023-04-19T09:35:45;100945.59;;;16.01;100.00
33404;BME280;19751;40.274;18.268;2023-04-19T09:38:13;100958.97;;;16.02;100.00
33404;BME280;19751;40.274;18.268;2023-04-19T09:40:39;100961.03;;;16.07;100.00
33404;BME280;19751;40.274;18.268;2023-04-19T09:43:05;100944.72;;;16.07;100.00
33404;BME280;19751;40.274;18.268;2023-04-19T09:45:45;100944.28;;;16.10;100.00
33404;BME280;19751;40.274;18.268;2023-04-19T09:48:13;100947.19;;;16.15;100.00
33404;BME280;19751;40.274;18.268;2023-04-19T09:53:20;100949.63;;;16.23;100.00
33404;BME280;19751;40.274;18.268;2023-04-19T09:55:45;100947.56;;;16.19;100.00
33404;BME280;19751;40.274;18.268;2023-04-19T09:58:16;100946.78;;;16.11;100.00
33404;BME280;19751;40.274;18.268;2023-04-19T10:00:46;100953.03;;;16.12;100.00
33404;BME280;19751;40.274;18.268;2023-04-19T10:03:14;100942.56;;;16.15;100.00
33404;BME280;19751;40.274;18.268;2023-04-19T10:05:40;100942.53;;;16.22;100.00
33404;BME280;19751;40.274;18.268;2023-04-19T10:08:07;100945.00;;;16.24;100.00
33404;BME280;19751;40.274;18.268;2023-04-19T10:10:33;100945.63;;;16.26;100.00
33404;BME280;19751;40.274;18.268;2023-04-19T10:13:02;100944.34;;;16.28;100.00
33404;BME280;19751;40.274;18.268;2023-04-19T10:15:29;100942.84;;;16.32;100.00
33404;BME280;19751;40.274;18.268;2023-04-19T10:17:55;100952.66;;;16.33;100.00
33404;BME280;19751;40.274;18.268;2023-04-19T10:20:23;100946.63;;;16.31;100.00
33404;BME280;19751;40.274;18.268;2023-04-19T10:22:51;100947.47;;;16.32;100.00
33404;BME280;19751;40.274;18.268;2023-04-19T10:25:17;100949.50;;;16.36;100.00
33404;BME280;19751;40.274;18.268;2023-04-19T10:27:44;100947.19;;;16.40;100.00
33404;BME280;19751;40.274;18.268;2023-04-19T10:30:23;100933.53;;;16.47;100.00
33404;BME280;19751;40.274;18.268;2023-04-19T10:32:56;100951.91;;;16.51;100.00
33404;BME280;19751;40.274;18.268;2023-04-19T10:35:26;100949.84;;;16.47;100.00
33404;BME280;19751;40.274;18.268;2023-04-19T10:43:23;100935.19;;;16.48;100.00
33404;BME280;19751;40.274;18.268;2023-04-19T10:45:50;100940.00;;;16.46;100.00
33404;BME280;19751;40.274;18.268;2023-04-19T10:53:52;100928.53;;;16.44;100.00
33404;BME280;19751;40.274;18.268;2023-04-19T10:59:40;100924.16;;;16.43;100.00
33404;BME280;19751;40.274;18.268;2023-04-19T11:02:26;100930.34;;;16.50;100.00
33404;BME280;19751;40.274;18.268;2023-04-19T11:07:18;100934.38;;;16.65;100.00
33404;BME280;19751;40.274;18.268;2023-04-19T11:09:46;100930.00;;;16.64;100.00
33404;BME280;19751;40.274;18.268;2023-04-19T11:12:15;100918.22;;;16.71;100.00
33404;BME280;19751;40.274;18.268;2023-04-19T11:14:43;100929.50;;;16.74;100.00
33404;BME280;19751;40.274;18.268;2023-04-19T11:17:27;100929.91;;;16.71;100.00
33404;BME280;19751;40.274;18.268;2023-04-19T11:24:55;100924.56;;;16.64;100.00
33404;BME280;19751;40.274;18.268;2023-04-19T11:27:21;100931.41;;;16.67;100.00
33404;BME280;19751;40.274;18.268;2023-04-19T11:29:46;100931.91;;;16.64;100.00
33404;BME280;19751;40.274;18.268;2023-04-19T11:32:12;100941.28;;;16.68;100.00
33404;BME280;19751;40.274;18.268;2023-04-19T11:34:40;100937.91;;;16.73;100.00
33404;BME280;19751;40.274;18.268;2023-04-19T11:37:05;100942.91;;;16.76;100.00
33404;BME280;19751;40.274;18.268;2023-04-19T11:39:31;100932.16;;;16.81;100.00
33404;BME280;19751;40.274;18.268;2023-04-19T11:41:57;100944.66;;;16.88;100.00
33404;BME280;19751;40.274;18.268;2023-04-19T11:44:24;100934.97;;;16.93;100.00
33404;BME280;19751;40.274;18.268;2023-04-19T11:46:59;100929.28;;;16.94;100.00
33404;BME280;19751;40.274;18.268;2023-04-19T11:49:30;100936.19;;;16.97;100.00
33404;BME280;19751;40.274;18.268;2023-04-19T11:51:59;100936.63;;;16.94;100.00
33404;BME280;19751;40.274;18.268;2023-04-19T11:54:26;100938.13;;;16.89;100.00
33404;BME280;19751;40.274;18.268;2023-04-19T11:59:23;100930.50;;;16.98;100.00
33404;BME280;19751;40.274;18.268;2023-04-19T12:01:49;100927.53;;;17.00;100.00
33404;BME280;19751;40.274;18.268;2023-04-19T12:04:14;100929.69;;;16.98;100.00
33404;BME280;19751;40.274;18.268;2023-04-19T12:06:40;100928.03;;;16.97;100.00
33404;BME280;19751;40.274;18.268;2023-04-19T12:09:06;100929.28;;;16.94;100.00
33404;BME280;19751;40.274;18.268;2023-04-19T12:11:44;100926.94;;;16.98;100.00
33404;BME280;19751;40.274;18.268;2023-04-19T12:14:15;100924.38;;;17.03;100.00
33404;BME280;19751;40.274;18.268;2023-04-19T12:16:41;100922.72;;;17.02;100.00
33404;BME280;19751;40.274;18.268;2023-04-19T12:19:15;100921.28;;;16.99;100.00
33404;BME280;19751;40.274;18.268;2023-04-19T12:21:45;100927.78;;;16.98;100.00
33404;BME280;19751;40.274;18.268;2023-04-19T12:24:14;100915.44;;;16.96;100.00
33404;BME280;19751;40.274;18.268;2023-04-19T12:26:55;100925.13;;;16.92;100.00
33404;BME280;19751;40.274;18.268;2023-04-19T12:29:21;100921.81;;;16.89;100.00
33404;BME280;19751;40.274;18.268;2023-04-19T12:31:47;100914.94;;;16.87;100.00
33404;BME280;19751;40.274;18.268;2023-04-19T12:34:12;100914.41;;;16.97;100.00
33404;BME280;19751;40.274;18.268;2023-04-19T12:36:38;100919.38;;;17.00;100.00
33404;BME280;19751;40.274;18.268;2023-04-19T12:39:03;100918.69;;;17.04;100.00
33404;BME280;19751;40.274;18.268;2023-04-19T12:41:30;100913.56;;;17.14;100.00
33404;BME280;19751;40.274;18.268;2023-04-19T12:43:55;100903.69;;;17.32;100.00
33404;BME280;19751;40.274;18.268;2023-04-19T12:46:21;100910.47;;;17.41;100.00
33404;BME280;19751;40.274;18.268;2023-04-19T12:48:46;100910.66;;;17.46;100.00
33404;BME280;19751;40.274;18.268;2023-04-19T12:51:12;100902.38;;;17.53;100.00
33404;BME280;19751;40.274;18.268;2023-04-19T12:53:37;100898.72;;;17.59;100.00